createdAt,value
2022-12-23T00:01:15.099Z,4.90
2022-12-23T00:02:46.591Z,4.76
2022-12-23T00:04:18.890Z,4.91
2022-12-23T00:05:50.225Z,4.35
2022-12-23T00:07:26.576Z,4.48
2022-12-23T00:08:58.859Z,4.85
2022-12-23T00:10:30.599Z,4.39
2022-12-23T00:12:02.238Z,4.27
2022-12-23T00:13:33.643Z,3.93
2022-12-23T00:15:05.199Z,4.65
2022-12-23T00:16:36.999Z,4.94
2022-12-23T00:18:08.679Z,4.66
2022-12-23T00:19:40.152Z,4.82
2022-12-23T00:21:11.442Z,4.41
2022-12-23T00:22:42.770Z,4.44
2022-12-23T00:24:14.574Z,4.46
2022-12-23T00:25:46.077Z,4.68
2022-12-23T00:27:17.387Z,4.29
2022-12-23T00:28:49.076Z,4.76
2022-12-23T00:30:20.424Z,4.80
2022-12-23T00:31:51.967Z,4.63
2022-12-23T00:33:23.291Z,4.53
2022-12-23T00:34:54.584Z,3.75
2022-12-23T00:36:25.951Z,4.23
2022-12-23T00:38:02.966Z,4.91
2022-12-23T00:39:34.561Z,4.80
2022-12-23T00:41:06.144Z,4.62
2022-12-23T00:42:37.719Z,4.93
2022-12-23T00:44:09.300Z,5.26
2022-12-23T00:45:40.628Z,5.05
2022-12-23T00:47:12.096Z,5.17
2022-12-23T00:48:43.461Z,5.28
2022-12-23T00:50:14.774Z,5.39
2022-12-23T00:51:46.128Z,5.67
2022-12-23T00:53:17.366Z,6.07
2022-12-23T00:54:48.896Z,6.02
2022-12-23T00:56:20.483Z,5.08
2022-12-23T00:57:51.992Z,5.41
2022-12-23T00:59:23.323Z,4.72
2022-12-23T01:00:54.613Z,4.34
2022-12-23T01:02:26.237Z,4.34
2022-12-23T01:03:57.700Z,5.26
2022-12-23T01:05:28.976Z,5.17
2022-12-23T01:07:00.714Z,4.98
2022-12-23T01:08:32.531Z,4.66
2022-12-23T01:10:08.964Z,5.03
2022-12-23T01:11:40.212Z,4.61
2022-12-23T01:13:11.575Z,4.89
2022-12-23T01:14:43.000Z,4.49
2022-12-23T01:16:17.563Z,4.88
2022-12-23T01:17:49.253Z,4.79
2022-12-23T01:19:20.648Z,5.33
2022-12-23T01:20:52.280Z,4.97
2022-12-23T01:22:23.749Z,3.91
2022-12-23T01:23:55.153Z,4.84
2022-12-23T01:25:26.773Z,4.19
2022-12-23T01:26:58.388Z,4.27
2022-12-23T01:28:29.827Z,3.98
2022-12-23T01:30:01.214Z,4.02
2022-12-23T01:31:32.568Z,3.84
2022-12-23T01:33:03.905Z,3.60
2022-12-23T01:34:37.555Z,3.50
2022-12-23T01:36:09.114Z,4.12
2022-12-23T01:37:40.409Z,4.28
2022-12-23T01:39:11.830Z,3.76
2022-12-23T01:40:43.432Z,4.53
2022-12-23T01:42:14.911Z,4.13
2022-12-23T01:43:46.193Z,4.88
2022-12-23T01:45:18.115Z,4.27
2022-12-23T01:46:49.815Z,4.68
2022-12-23T01:48:21.182Z,5.09
2022-12-23T01:49:52.497Z,4.56
2022-12-23T01:51:23.894Z,4.96
2022-12-23T01:52:55.302Z,4.66
2022-12-23T01:54:27.376Z,4.32
2022-12-23T01:55:58.848Z,3.98
2022-12-23T01:57:30.213Z,4.90
2022-12-23T01:59:01.752Z,4.64
2022-12-23T02:00:33.234Z,4.16
2022-12-23T02:02:05.109Z,4.41
2022-12-23T02:03:36.800Z,5.29
2022-12-23T02:05:08.128Z,5.52
2022-12-23T02:06:39.378Z,4.61
2022-12-23T02:08:10.941Z,4.05
2022-12-23T02:09:47.270Z,5.13
2022-12-23T02:11:18.879Z,5.02
2022-12-23T02:12:55.343Z,4.44
2022-12-23T02:14:26.572Z,5.00
2022-12-23T02:15:57.820Z,4.89
2022-12-23T02:17:39.315Z,4.43
2022-12-23T02:19:10.874Z,4.07
2022-12-23T02:20:42.431Z,4.46
2022-12-23T02:22:13.937Z,4.43
2022-12-23T02:23:45.364Z,4.83
2022-12-23T02:25:16.681Z,4.30
2022-12-23T02:26:49.664Z,4.82
2022-12-23T02:28:21.487Z,5.27
2022-12-23T02:29:53.367Z,3.87
2022-12-23T02:31:24.806Z,5.31
2022-12-23T02:32:56.394Z,6.40
2022-12-23T02:34:27.864Z,6.45
2022-12-23T02:35:59.295Z,5.96
2022-12-23T02:37:32.062Z,6.58
2022-12-23T02:39:08.479Z,8.14
2022-12-23T02:40:39.801Z,5.95
2022-12-23T02:42:11.200Z,6.50
2022-12-23T02:43:42.615Z,5.08
2022-12-23T02:45:19.036Z,4.80
2022-12-23T02:46:50.414Z,5.20
2022-12-23T02:48:21.754Z,5.98
2022-12-23T02:49:53.000Z,7.23
2022-12-23T02:51:24.301Z,7.22
2022-12-23T02:52:55.577Z,6.16
2022-12-23T02:54:27.071Z,6.30
2022-12-23T02:55:58.498Z,7.14
2022-12-23T02:57:29.988Z,8.27
2022-12-23T02:59:01.388Z,8.49
2022-12-23T03:00:32.788Z,8.81
2022-12-23T03:02:04.431Z,9.13
2022-12-23T03:03:35.957Z,8.92
2022-12-23T03:05:07.302Z,8.06
2022-12-23T03:06:38.719Z,9.05
2022-12-23T03:08:10.036Z,7.63
2022-12-23T03:09:41.369Z,9.10
2022-12-23T03:11:12.652Z,7.26
2022-12-23T03:12:43.962Z,7.34
2022-12-23T03:14:25.373Z,8.57
2022-12-23T03:15:57.174Z,9.74
2022-12-23T03:17:28.785Z,8.17
2022-12-23T03:19:00.405Z,8.15
2022-12-23T03:20:32.493Z,9.82
2022-12-23T03:22:04.426Z,11.20
2022-12-23T03:23:35.806Z,11.39
2022-12-23T03:25:07.083Z,9.91
2022-12-23T03:26:38.332Z,9.41
2022-12-23T03:28:10.475Z,11.26
2022-12-23T03:29:41.708Z,9.10
2022-12-23T03:31:13.172Z,11.36
2022-12-23T03:32:51.444Z,9.84
2022-12-23T03:34:22.725Z,7.64
2022-12-23T03:35:54.115Z,9.00
2022-12-23T03:37:25.512Z,9.40
2022-12-23T03:38:57.140Z,7.22
2022-12-23T03:40:28.397Z,8.17
2022-12-23T03:41:59.775Z,8.10
2022-12-23T03:43:31.037Z,5.98
2022-12-23T03:47:05.046Z,6.07
2022-12-23T03:48:36.459Z,6.03
2022-12-23T03:50:07.781Z,6.90
2022-12-23T03:51:39.098Z,6.57
2022-12-23T03:53:10.380Z,6.86
2022-12-23T03:54:41.796Z,4.61
2022-12-23T03:56:13.071Z,6.91
2022-12-23T03:57:44.513Z,8.06
2022-12-23T03:59:15.811Z,7.45
2022-12-23T04:00:47.137Z,8.70
2022-12-23T04:02:18.634Z,9.10
2022-12-23T04:03:50.111Z,8.58
2022-12-23T04:05:21.853Z,9.32
2022-12-23T04:06:53.424Z,7.21
2022-12-23T04:08:24.981Z,7.29
2022-12-23T04:09:56.381Z,9.17
2022-12-23T04:11:27.691Z,8.57
2022-12-23T04:12:58.986Z,10.03
2022-12-23T04:14:30.565Z,10.46
2022-12-23T04:16:02.056Z,9.34
2022-12-23T04:17:33.464Z,11.46
2022-12-23T04:19:05.103Z,10.76
2022-12-23T04:20:36.452Z,10.05
2022-12-23T04:22:07.721Z,10.70
2022-12-23T04:23:38.928Z,12.81
2022-12-23T04:25:10.284Z,11.55
2022-12-23T04:26:41.518Z,8.68
2022-12-23T04:28:12.875Z,9.04
2022-12-23T04:29:44.314Z,8.31
2022-12-23T04:31:15.654Z,9.29
2022-12-23T04:32:46.961Z,11.82
2022-12-23T04:34:18.344Z,9.31
2022-12-23T04:35:49.778Z,10.60
2022-12-23T04:37:21.068Z,12.65
2022-12-23T04:38:52.377Z,8.22
2022-12-23T04:40:23.982Z,9.13
2022-12-23T04:41:55.304Z,10.45
2022-12-23T04:43:26.732Z,10.21
2022-12-23T04:44:58.136Z,8.57
2022-12-23T04:46:29.666Z,9.11
2022-12-23T04:48:01.134Z,8.20
2022-12-23T04:49:32.467Z,7.77
2022-12-23T04:51:03.727Z,8.28
2022-12-23T04:52:35.155Z,7.08
2022-12-23T04:54:06.689Z,7.24
2022-12-23T04:55:37.969Z,8.38
2022-12-23T04:57:09.464Z,7.75
2022-12-23T04:58:40.932Z,6.18
2022-12-23T05:00:12.517Z,7.70
2022-12-23T05:01:44.043Z,4.67
2022-12-23T05:03:15.638Z,7.50
2022-12-23T05:04:47.063Z,7.20
2022-12-23T05:06:18.365Z,7.85
2022-12-23T05:07:49.747Z,6.95
2022-12-23T05:09:21.075Z,6.95
2022-12-23T05:10:52.851Z,7.66
2022-12-23T05:12:24.249Z,6.39
2022-12-23T05:13:56.047Z,6.29
2022-12-23T05:15:27.458Z,5.64
2022-12-23T05:17:05.211Z,6.65
2022-12-23T05:18:38.562Z,6.85
2022-12-23T05:20:10.013Z,5.64
2022-12-23T05:21:41.495Z,6.19
2022-12-23T05:23:12.744Z,6.61
2022-12-23T05:24:44.051Z,5.55
2022-12-23T05:26:15.347Z,5.98
2022-12-23T05:27:46.647Z,4.95
2022-12-23T05:29:17.939Z,5.52
2022-12-23T05:30:49.276Z,5.40
2022-12-23T05:32:20.531Z,5.60
2022-12-23T05:33:52.092Z,5.41
2022-12-23T05:35:23.434Z,4.73
2022-12-23T05:36:54.922Z,4.90
2022-12-23T05:38:26.353Z,6.17
2022-12-23T05:39:57.734Z,5.34
2022-12-23T05:41:29.150Z,4.77
2022-12-23T05:43:00.487Z,6.51
2022-12-23T05:44:31.927Z,7.12
2022-12-23T05:46:03.191Z,7.05
2022-12-23T05:47:34.436Z,6.84
2022-12-23T05:49:05.807Z,7.78
2022-12-23T05:50:37.203Z,7.40
2022-12-23T05:52:08.555Z,7.60
2022-12-23T05:53:40.006Z,6.81
2022-12-23T05:55:11.300Z,7.00
2022-12-23T05:56:42.776Z,6.52
2022-12-23T05:58:14.059Z,6.37
2022-12-23T05:59:45.472Z,6.92
2022-12-23T06:01:16.952Z,6.14
2022-12-23T06:02:53.616Z,5.57
2022-12-23T06:04:25.648Z,4.86
2022-12-23T06:05:57.207Z,5.78
2022-12-23T06:07:28.554Z,5.54
2022-12-23T06:09:00.354Z,4.50
2022-12-23T06:10:32.032Z,5.91
2022-12-23T06:12:03.316Z,4.95
2022-12-23T06:13:34.631Z,3.82
2022-12-23T06:15:06.035Z,5.78
2022-12-23T06:16:37.440Z,4.93
2022-12-23T06:18:09.085Z,4.74
2022-12-23T06:19:41.576Z,4.94
2022-12-23T06:21:12.854Z,5.69
2022-12-23T06:22:44.384Z,6.02
2022-12-23T06:24:15.971Z,6.90
2022-12-23T06:25:47.529Z,6.95
2022-12-23T06:27:18.798Z,7.14
2022-12-23T06:28:50.202Z,8.15
2022-12-23T06:30:21.631Z,7.46
2022-12-23T06:31:53.116Z,6.73
2022-12-23T06:33:24.470Z,5.05
2022-12-23T06:34:55.737Z,4.99
2022-12-23T06:36:27.198Z,5.23
2022-12-23T06:37:58.536Z,5.84
2022-12-23T06:39:29.812Z,6.04
2022-12-23T06:41:02.272Z,5.43
2022-12-23T06:42:33.534Z,7.31
2022-12-23T06:44:04.975Z,7.86
2022-12-23T06:45:36.335Z,7.27
2022-12-23T06:47:07.658Z,8.42
2022-12-23T06:48:39.073Z,9.28
2022-12-23T06:50:10.450Z,12.02
2022-12-23T06:51:41.972Z,9.49
2022-12-23T06:53:13.973Z,8.59
2022-12-23T06:54:45.288Z,8.17
2022-12-23T06:56:16.804Z,10.13
2022-12-23T06:57:48.314Z,11.38
2022-12-23T06:59:19.702Z,11.65
2022-12-23T07:00:51.273Z,12.12
2022-12-23T07:02:22.703Z,11.64
2022-12-23T07:03:54.189Z,11.75
2022-12-23T07:05:25.568Z,10.64
2022-12-23T07:06:56.878Z,11.31
2022-12-23T07:08:28.188Z,10.55
2022-12-23T07:09:59.606Z,9.44
2022-12-23T07:11:31.167Z,10.55
2022-12-23T07:13:02.424Z,10.84
2022-12-23T07:14:56.573Z,10.35
2022-12-23T07:16:27.907Z,8.58
2022-12-23T07:17:59.375Z,9.43
2022-12-23T07:19:30.691Z,8.06
2022-12-23T07:21:02.387Z,9.37
2022-12-23T07:22:34.536Z,7.60
2022-12-23T07:24:05.910Z,10.23
2022-12-23T07:25:37.318Z,9.94
2022-12-23T07:27:08.646Z,9.63
2022-12-23T07:28:40.439Z,10.67
2022-12-23T07:30:11.690Z,10.15
2022-12-23T07:31:43.285Z,9.70
2022-12-23T07:33:14.564Z,10.69
2022-12-23T07:34:45.988Z,8.16
2022-12-23T07:36:17.307Z,10.88
2022-12-23T07:37:48.589Z,11.04
2022-12-23T07:39:20.100Z,10.36
2022-12-23T07:40:51.692Z,13.26
2022-12-23T07:42:43.998Z,13.62
2022-12-23T07:44:16.868Z,9.93
2022-12-23T07:45:51.329Z,9.73
2022-12-23T07:47:27.924Z,11.68
2022-12-23T07:48:59.267Z,12.12
2022-12-23T07:50:30.563Z,13.28
2022-12-23T07:52:02.089Z,11.92
2022-12-23T07:53:33.611Z,12.94
2022-12-23T07:55:04.840Z,10.46
2022-12-23T07:56:36.092Z,10.53
2022-12-23T07:58:07.384Z,11.80
2022-12-23T07:59:38.891Z,13.26
2022-12-23T08:01:10.410Z,12.55
2022-12-23T08:02:41.868Z,12.35
2022-12-23T08:04:13.284Z,9.30
2022-12-23T08:05:44.689Z,11.92
2022-12-23T08:07:16.183Z,11.56
2022-12-23T08:08:47.896Z,10.51
2022-12-23T08:10:19.252Z,11.74
2022-12-23T08:11:50.565Z,12.26
2022-12-23T08:13:21.944Z,10.65
2022-12-23T08:14:53.419Z,12.05
2022-12-23T08:16:24.781Z,10.26
2022-12-23T08:17:56.313Z,13.70
2022-12-23T08:19:28.184Z,12.47
2022-12-23T08:20:59.613Z,12.45
2022-12-23T08:22:30.882Z,13.48
2022-12-23T08:24:02.297Z,11.91
2022-12-23T08:25:33.614Z,12.36
2022-12-23T08:27:04.961Z,14.12
2022-12-23T08:28:36.249Z,12.11
2022-12-23T08:30:08.657Z,13.16
2022-12-23T08:31:40.099Z,13.53
2022-12-23T08:33:11.370Z,13.52
2022-12-23T08:34:42.636Z,12.72
2022-12-23T08:36:17.681Z,13.32
2022-12-23T08:37:53.771Z,13.32
2022-12-23T08:39:25.342Z,13.64
2022-12-23T08:40:56.644Z,13.28
2022-12-23T08:42:28.190Z,13.73
2022-12-23T08:43:59.506Z,13.98
2022-12-23T08:45:31.086Z,13.84
2022-12-23T08:47:02.362Z,11.09
2022-12-23T08:48:33.641Z,11.89
2022-12-23T08:50:05.089Z,13.81
2022-12-23T08:51:36.367Z,13.65
2022-12-23T08:53:07.861Z,12.60
2022-12-23T08:54:39.275Z,12.35
2022-12-23T08:56:12.770Z,12.72
2022-12-23T08:57:44.174Z,14.27
2022-12-23T08:59:19.236Z,13.33
2022-12-23T09:00:50.974Z,13.64
2022-12-23T09:02:22.538Z,12.89
2022-12-23T09:03:54.035Z,13.55
2022-12-23T09:05:25.431Z,13.71
2022-12-23T09:06:56.698Z,12.64
2022-12-23T09:08:28.050Z,12.35
2022-12-23T09:09:59.331Z,13.05
2022-12-23T09:11:31.239Z,11.71
2022-12-23T09:13:02.508Z,12.98
2022-12-23T09:14:33.758Z,13.08
2022-12-23T09:16:05.214Z,13.15
2022-12-23T09:17:36.479Z,13.16
2022-12-23T09:19:07.946Z,12.86
2022-12-23T09:20:39.307Z,12.51
2022-12-23T09:22:10.591Z,12.95
2022-12-23T09:23:42.124Z,13.69
2022-12-23T09:25:18.440Z,13.12
2022-12-23T09:26:49.863Z,12.97
2022-12-23T09:28:21.261Z,12.56
2022-12-23T09:30:06.599Z,12.44
2022-12-23T09:31:41.562Z,13.13
2022-12-23T09:33:13.466Z,13.21
2022-12-23T09:34:44.889Z,13.19
2022-12-23T09:36:16.238Z,12.40
2022-12-23T09:37:47.570Z,12.19
2022-12-23T09:39:24.143Z,12.89
2022-12-23T09:41:00.522Z,13.25
2022-12-23T09:42:37.015Z,12.94
2022-12-23T09:44:23.856Z,13.06
2022-12-23T09:46:05.299Z,13.24
2022-12-23T09:47:36.920Z,12.97
2022-12-23T09:49:08.272Z,13.87
2022-12-23T09:50:56.810Z,13.97
2022-12-23T09:52:28.135Z,13.59
2022-12-23T09:53:59.465Z,13.78
2022-12-23T09:55:30.841Z,14.10
2022-12-23T09:57:02.465Z,13.83
2022-12-23T09:58:38.751Z,13.45
2022-12-23T10:00:15.166Z,13.92
2022-12-23T10:01:46.583Z,13.36
2022-12-23T10:03:21.514Z,13.90
2022-12-23T10:04:53.259Z,13.53
2022-12-23T10:06:25.139Z,13.59
2022-12-23T10:07:56.865Z,13.63
2022-12-23T10:09:28.245Z,13.45
2022-12-23T10:11:14.991Z,13.37
2022-12-23T10:12:46.325Z,13.19
2022-12-23T10:14:17.914Z,13.90
2022-12-23T10:15:49.613Z,13.54
2022-12-23T10:17:21.086Z,15.33
2022-12-23T10:18:52.728Z,14.36
2022-12-23T10:20:24.135Z,13.87
2022-12-23T10:21:55.491Z,13.95
2022-12-23T10:23:26.732Z,13.69
2022-12-23T10:25:03.037Z,13.57
2022-12-23T10:26:34.566Z,13.46
2022-12-23T10:28:06.312Z,12.80
2022-12-23T10:29:37.692Z,13.65
2022-12-23T10:31:39.978Z,14.08
2022-12-23T10:33:12.252Z,14.05
2022-12-23T10:34:43.708Z,14.66
2022-12-23T10:36:15.365Z,13.99
2022-12-23T10:37:47.206Z,14.13
2022-12-23T10:39:19.877Z,14.01
2022-12-23T10:40:51.260Z,13.86
2022-12-23T10:42:22.581Z,17.81
2022-12-23T10:43:54.030Z,29.90
2022-12-23T10:45:25.639Z,21.46
2022-12-23T10:46:57.022Z,14.05
2022-12-23T10:48:28.369Z,14.13
2022-12-23T10:49:59.882Z,13.84
2022-12-23T10:51:31.562Z,13.71
2022-12-23T10:53:03.945Z,14.29
2022-12-23T10:54:35.484Z,13.64
2022-12-23T10:56:06.857Z,13.51
2022-12-23T10:57:38.428Z,13.12
2022-12-23T10:59:09.717Z,14.30
2022-12-23T11:00:41.151Z,13.41
2022-12-23T11:04:14.063Z,12.61
2022-12-23T11:05:45.422Z,12.34
2022-12-23T11:09:13.434Z,11.18
2022-12-23T11:10:45.141Z,12.04
2022-12-23T11:12:16.447Z,11.46
2022-12-23T11:13:47.843Z,11.44
2022-12-23T11:15:19.385Z,11.66
2022-12-23T11:16:50.867Z,11.61
2022-12-23T11:18:22.914Z,10.86
2022-12-23T11:19:54.490Z,11.07
2022-12-23T11:21:25.822Z,10.72
2022-12-23T11:22:57.215Z,10.37
2022-12-23T11:24:28.642Z,10.18
2022-12-23T11:26:00.161Z,9.80
2022-12-23T11:27:31.499Z,10.40
2022-12-23T11:29:12.847Z,10.29
2022-12-23T11:30:45.286Z,9.74
2022-12-23T11:32:20.222Z,9.99
2022-12-23T11:33:51.582Z,9.85
2022-12-23T11:35:23.058Z,10.11
2022-12-23T11:36:56.638Z,9.27
2022-12-23T11:38:32.975Z,9.04
2022-12-23T11:40:04.371Z,8.94
2022-12-23T11:41:36.651Z,8.92
2022-12-23T11:43:08.005Z,9.05
2022-12-23T11:44:39.415Z,9.55
2022-12-23T11:46:10.857Z,8.67
2022-12-23T11:47:42.406Z,8.22
2022-12-23T11:49:14.114Z,8.41
2022-12-23T11:50:50.472Z,7.97
2022-12-23T11:52:21.870Z,7.68
2022-12-23T11:53:53.362Z,8.02
2022-12-23T11:55:24.782Z,8.18
2022-12-23T11:56:56.295Z,8.08
2022-12-23T11:58:27.735Z,8.02
2022-12-23T11:59:59.587Z,7.89
2022-12-23T12:01:30.949Z,7.56
2022-12-23T12:03:02.324Z,7.55
2022-12-23T12:04:33.900Z,8.26
2022-12-23T12:06:05.514Z,8.17
2022-12-23T12:07:37.046Z,8.08
2022-12-23T12:09:09.412Z,8.21
2022-12-23T12:10:40.823Z,8.11
2022-12-23T12:12:12.768Z,8.53
2022-12-23T12:13:44.099Z,8.05
2022-12-23T12:15:15.396Z,8.86
2022-12-23T12:16:46.958Z,9.08
2022-12-23T12:18:19.690Z,9.13
2022-12-23T12:19:51.030Z,9.50
2022-12-23T12:21:22.381Z,9.33
2022-12-23T12:22:53.965Z,9.34
2022-12-23T12:24:25.347Z,9.40
2022-12-23T12:25:56.703Z,9.67
2022-12-23T12:27:27.994Z,9.96
2022-12-23T12:28:59.534Z,9.46
2022-12-23T12:30:30.972Z,9.41
2022-12-23T12:32:02.253Z,9.11
2022-12-23T12:33:33.843Z,9.54
2022-12-23T12:35:05.259Z,10.13
2022-12-23T12:36:37.069Z,9.90
2022-12-23T12:38:08.683Z,9.98
2022-12-23T12:39:40.095Z,10.38
2022-12-23T12:41:11.476Z,10.16
2022-12-23T12:42:43.018Z,9.90
2022-12-23T12:44:14.433Z,10.61
2022-12-23T12:45:46.322Z,10.20
2022-12-23T12:47:36.725Z,10.48
2022-12-23T12:49:16.353Z,10.50
2022-12-23T12:50:47.715Z,10.56
2022-12-23T12:52:20.145Z,11.16
2022-12-23T12:54:01.155Z,10.26
2022-12-23T12:55:36.206Z,10.90
2022-12-23T12:57:08.273Z,10.45
2022-12-23T12:58:39.772Z,8.49
2022-12-23T13:00:12.382Z,7.38
2022-12-23T13:01:44.385Z,7.26
2022-12-23T13:03:16.274Z,8.05
2022-12-23T13:04:47.923Z,7.91
2022-12-23T13:06:19.761Z,7.49
2022-12-23T13:07:51.315Z,7.63
2022-12-23T13:09:23.014Z,8.27
2022-12-23T13:10:54.372Z,8.18
2022-12-23T13:12:26.145Z,7.74
2022-12-23T13:13:57.770Z,7.89
2022-12-23T13:15:29.473Z,8.46
2022-12-23T13:17:01.261Z,8.31
2022-12-23T13:18:32.659Z,9.26
2022-12-23T13:20:04.005Z,11.82
2022-12-23T13:21:35.432Z,12.08
2022-12-23T13:23:34.443Z,9.93
2022-12-23T13:25:14.144Z,9.58
2022-12-23T13:26:45.608Z,9.03
2022-12-23T13:28:17.124Z,8.46
2022-12-23T13:29:50.977Z,7.66
2022-12-23T13:31:26.506Z,7.89
2022-12-23T13:32:58.239Z,9.03
2022-12-23T13:34:29.699Z,9.29
2022-12-23T13:36:05.247Z,9.63
2022-12-23T13:37:37.467Z,8.84
2022-12-23T13:39:08.851Z,8.19
2022-12-23T13:40:40.225Z,9.20
2022-12-23T13:42:11.667Z,8.82
2022-12-23T13:43:43.117Z,8.99
2022-12-23T13:45:14.520Z,8.12
2022-12-23T13:46:45.916Z,7.35
2022-12-23T13:48:18.098Z,6.30
2022-12-23T13:49:49.375Z,6.46
2022-12-23T13:51:20.987Z,6.49
2022-12-23T13:52:52.647Z,6.03
2022-12-23T13:54:24.370Z,6.17
2022-12-23T13:55:56.875Z,6.48
2022-12-23T13:57:28.496Z,6.43
2022-12-23T13:58:59.815Z,6.12
2022-12-23T14:00:31.148Z,6.72
2022-12-23T14:02:02.442Z,6.75
2022-12-23T14:03:34.140Z,6.55
2022-12-23T14:05:08.329Z,6.43
2022-12-23T14:06:41.937Z,6.16
2022-12-23T14:08:13.250Z,6.04
2022-12-23T14:09:45.561Z,6.00
2022-12-23T14:11:17.278Z,5.60
2022-12-23T14:12:48.836Z,5.08
2022-12-23T14:14:20.267Z,4.74
2022-12-23T14:15:51.789Z,4.71
2022-12-23T14:17:24.091Z,4.82
2022-12-23T14:18:55.768Z,4.45
2022-12-23T14:20:27.188Z,3.97
2022-12-23T14:21:58.602Z,4.04
2022-12-23T14:23:29.936Z,4.10
2022-12-23T14:25:01.615Z,4.03
2022-12-23T14:26:32.954Z,4.08
2022-12-23T14:28:04.262Z,3.93
2022-12-23T14:29:35.699Z,3.46
2022-12-23T14:31:07.438Z,3.39
2022-12-23T14:32:38.721Z,3.04
2022-12-23T14:34:10.309Z,3.03
2022-12-23T14:35:42.918Z,2.75
2022-12-23T14:37:14.577Z,2.68
2022-12-23T14:38:46.033Z,2.57
2022-12-23T14:40:17.358Z,3.76
2022-12-23T14:41:49.170Z,2.93
2022-12-23T14:43:20.719Z,2.78
2022-12-23T14:44:52.579Z,2.64
2022-12-23T14:46:24.100Z,2.62
2022-12-23T14:47:55.643Z,2.84
2022-12-23T14:49:38.921Z,2.48
2022-12-23T14:51:11.123Z,2.27
2022-12-23T14:52:45.055Z,2.46
2022-12-23T14:54:17.480Z,2.80
2022-12-23T14:55:48.812Z,2.56
2022-12-23T14:57:20.074Z,2.30
2022-12-23T14:58:51.390Z,2.18
2022-12-23T15:00:23.007Z,2.03
2022-12-23T15:01:54.650Z,2.01
2022-12-23T15:03:26.016Z,1.86
2022-12-23T15:05:13.488Z,1.97
2022-12-23T15:06:45.740Z,2.02
2022-12-23T15:08:17.168Z,1.95
2022-12-23T15:09:48.624Z,1.86
2022-12-23T15:11:19.932Z,2.11
2022-12-23T15:12:51.241Z,1.88
2022-12-23T15:14:22.558Z,1.79
2022-12-23T15:16:00.738Z,1.96
2022-12-23T15:17:33.121Z,1.98
2022-12-23T15:19:04.416Z,1.95
2022-12-23T15:20:35.772Z,2.02
2022-12-23T15:22:17.269Z,2.14
2022-12-23T15:23:54.199Z,2.44
2022-12-23T15:25:25.909Z,2.42
2022-12-23T15:27:25.120Z,2.10
2022-12-23T15:28:57.788Z,2.11
2022-12-23T15:30:29.139Z,2.23
2022-12-23T15:32:00.421Z,2.66
2022-12-23T15:34:02.056Z,2.60
2022-12-23T15:35:34.786Z,2.22
2022-12-23T15:37:06.297Z,2.43
2022-12-23T15:38:37.714Z,2.41
2022-12-23T15:40:13.253Z,2.58
2022-12-23T15:41:45.230Z,2.56
2022-12-23T15:43:16.572Z,2.58
2022-12-23T15:44:47.977Z,2.75
2022-12-23T15:46:24.989Z,3.14
2022-12-23T15:48:01.815Z,3.34
2022-12-23T15:49:33.426Z,2.32
2022-12-23T15:51:04.765Z,2.02
2022-12-23T15:52:36.046Z,2.06
2022-12-23T15:54:07.526Z,2.03
2022-12-23T15:55:38.805Z,2.22
2022-12-23T15:57:10.219Z,2.29
2022-12-23T15:58:41.732Z,2.07
2022-12-23T16:00:13.515Z,2.19
2022-12-23T16:01:45.026Z,2.06
2022-12-23T16:03:16.626Z,1.99
2022-12-23T16:04:48.277Z,1.79
2022-12-23T16:06:19.909Z,1.76
2022-12-23T16:07:51.208Z,1.57
2022-12-23T16:09:23.105Z,2.07
2022-12-23T16:10:54.462Z,2.06
2022-12-23T16:12:25.763Z,1.81
2022-12-23T16:13:58.721Z,1.97
2022-12-23T16:15:30.399Z,2.44
2022-12-23T16:17:01.795Z,2.42
2022-12-23T16:18:33.242Z,2.04
2022-12-23T16:20:04.514Z,2.35
2022-12-23T16:21:35.939Z,3.05
2022-12-23T16:23:07.268Z,2.38
2022-12-23T16:24:39.105Z,2.21
2022-12-23T16:26:10.597Z,3.12
2022-12-23T16:27:41.880Z,3.58
2022-12-23T16:29:13.267Z,2.99
2022-12-23T16:30:44.534Z,3.04
2022-12-23T16:32:16.126Z,2.37
2022-12-23T16:33:47.796Z,3.51
2022-12-23T16:35:19.215Z,3.99
2022-12-23T16:36:50.813Z,3.15
2022-12-23T16:38:22.759Z,2.70
2022-12-23T16:39:54.121Z,2.92
2022-12-23T16:41:25.457Z,3.95
2022-12-23T16:42:56.953Z,3.39
2022-12-23T16:44:28.272Z,3.77
2022-12-23T16:45:59.819Z,4.11
2022-12-23T16:47:36.660Z,5.71
2022-12-23T16:49:08.115Z,3.64
2022-12-23T16:50:39.455Z,4.21
2022-12-23T16:52:10.820Z,5.08
2022-12-23T16:53:42.429Z,4.95
2022-12-23T16:55:13.735Z,4.74
2022-12-23T16:56:44.996Z,5.71
2022-12-23T16:58:16.536Z,5.17
2022-12-23T16:59:47.866Z,6.41
2022-12-23T17:01:19.757Z,6.33
2022-12-23T17:02:51.231Z,5.72
2022-12-23T17:04:22.677Z,6.34
2022-12-23T17:05:54.202Z,6.13
2022-12-23T17:07:25.619Z,7.15
2022-12-23T17:08:56.986Z,7.16
2022-12-23T17:10:28.719Z,7.31
2022-12-23T17:12:00.367Z,8.32
2022-12-23T17:13:31.768Z,7.49
2022-12-23T17:15:03.333Z,7.10
2022-12-23T17:16:34.752Z,6.14
2022-12-23T17:18:06.084Z,7.61
2022-12-23T17:19:37.505Z,7.96
2022-12-23T17:21:09.006Z,7.83
2022-12-23T17:22:40.411Z,8.56
2022-12-23T17:24:11.747Z,6.69
2022-12-23T17:25:43.186Z,6.57
2022-12-23T17:27:14.773Z,7.28
2022-12-23T17:28:46.426Z,7.55
2022-12-23T17:30:17.760Z,7.56
2022-12-23T17:31:49.278Z,7.01
2022-12-23T17:33:20.641Z,6.86
2022-12-23T17:34:52.035Z,4.54
2022-12-23T17:36:29.127Z,2.94
2022-12-23T17:38:06.087Z,2.34
2022-12-23T17:39:37.660Z,1.81
2022-12-23T17:41:08.915Z,2.36
2022-12-23T17:42:40.364Z,3.08
2022-12-23T17:44:11.877Z,3.28
2022-12-23T17:45:43.678Z,2.70
2022-12-23T17:47:15.054Z,3.11
2022-12-23T17:48:46.440Z,2.73
2022-12-23T17:50:17.880Z,2.34
2022-12-23T17:51:49.237Z,2.32
2022-12-23T17:53:20.685Z,2.66
2022-12-23T17:54:53.399Z,2.77
2022-12-23T17:56:24.787Z,3.34
2022-12-23T17:57:56.106Z,2.97
2022-12-23T17:59:27.409Z,2.34
2022-12-23T18:00:58.894Z,3.10
2022-12-23T18:02:30.355Z,3.48
2022-12-23T18:04:01.877Z,3.54
2022-12-23T18:05:33.187Z,3.45
2022-12-23T18:07:04.504Z,3.48
2022-12-23T18:08:36.044Z,3.41
2022-12-23T18:10:07.628Z,2.99
2022-12-23T18:11:39.369Z,3.76
2022-12-23T18:13:10.844Z,4.52
2022-12-23T18:14:42.217Z,4.58
2022-12-23T18:16:13.772Z,4.52
2022-12-23T18:17:45.174Z,5.21
2022-12-23T18:19:16.748Z,5.37
2022-12-23T18:20:48.107Z,4.97
2022-12-23T18:22:19.760Z,3.28
2022-12-23T18:23:51.295Z,2.50
2022-12-23T18:25:22.676Z,1.78
2022-12-23T18:26:54.154Z,2.02
2022-12-23T18:28:29.580Z,2.12
2022-12-23T18:30:07.930Z,1.77
2022-12-23T18:31:42.828Z,1.95
2022-12-23T18:33:18.306Z,1.65
2022-12-23T18:34:49.661Z,1.88
2022-12-23T18:36:21.312Z,2.78
2022-12-23T18:37:52.769Z,1.98
2022-12-23T18:39:24.078Z,2.36
2022-12-23T18:40:55.537Z,2.58
2022-12-23T18:42:26.916Z,1.98
2022-12-23T18:43:58.365Z,2.46
2022-12-23T18:45:29.839Z,2.22
2022-12-23T18:47:01.385Z,2.26
2022-12-23T18:48:33.091Z,2.97
2022-12-23T18:50:04.715Z,3.74
2022-12-23T18:51:36.077Z,2.84
2022-12-23T18:53:07.449Z,2.60
2022-12-23T18:54:38.897Z,3.05
2022-12-23T18:56:10.324Z,3.43
2022-12-23T18:57:41.668Z,2.59
2022-12-23T18:59:13.125Z,2.29
2022-12-23T19:00:49.631Z,2.72
2022-12-23T19:02:21.475Z,2.72
2022-12-23T19:03:53.200Z,3.28
2022-12-23T19:05:24.547Z,2.28
2022-12-23T19:06:56.344Z,2.56
2022-12-23T19:08:28.124Z,2.86
2022-12-23T19:09:59.420Z,2.34
2022-12-23T19:11:30.893Z,2.13
2022-12-23T19:13:02.829Z,1.60
2022-12-23T19:14:34.327Z,2.27
2022-12-23T19:16:05.701Z,2.73
2022-12-23T19:17:37.103Z,2.34
2022-12-23T19:19:08.490Z,2.00
2022-12-23T19:20:39.860Z,2.37
2022-12-23T19:22:11.303Z,2.37
2022-12-23T19:23:42.796Z,2.41
2022-12-23T19:25:14.153Z,3.38
2022-12-23T19:26:45.504Z,2.20
2022-12-23T19:28:16.783Z,2.41
2022-12-23T19:29:48.242Z,2.95
2022-12-23T19:31:19.879Z,2.48
2022-12-23T19:32:51.721Z,2.25
2022-12-23T19:34:23.372Z,2.94
2022-12-23T19:35:54.870Z,2.75
2022-12-23T19:37:26.226Z,3.71
2022-12-23T19:38:57.728Z,2.58
2022-12-23T19:40:29.134Z,3.07
2022-12-23T19:42:00.560Z,2.63
2022-12-23T19:43:32.043Z,2.50
2022-12-23T19:45:03.367Z,3.20
2022-12-23T19:46:34.742Z,2.44
2022-12-23T19:48:06.145Z,2.90
2022-12-23T19:49:37.373Z,3.49
2022-12-23T19:51:08.605Z,3.31
2022-12-23T19:52:41.674Z,3.18
2022-12-23T19:54:13.195Z,2.99
2022-12-23T19:55:44.592Z,2.97
2022-12-23T19:57:15.970Z,2.92
2022-12-23T19:58:47.605Z,2.82
2022-12-23T20:00:19.406Z,4.16
2022-12-23T20:01:51.315Z,3.27
2022-12-23T20:03:38.248Z,3.64
2022-12-23T20:05:09.516Z,4.05
2022-12-23T20:06:40.911Z,4.01
2022-12-23T20:08:12.461Z,3.07
2022-12-23T20:09:43.787Z,2.81
2022-12-23T20:11:15.171Z,3.22
2022-12-23T20:12:46.420Z,3.56
2022-12-23T20:14:17.873Z,3.51
2022-12-23T20:15:49.242Z,3.25
2022-12-23T20:17:20.843Z,3.06
2022-12-23T20:18:52.270Z,3.00
2022-12-23T20:20:23.736Z,3.95
2022-12-23T20:21:55.122Z,3.31
2022-12-23T20:23:26.465Z,3.23
2022-12-23T20:24:58.003Z,3.04